sensor_id;sensor_type;location;lat;lon;timestamp;temperature;humidity
20204;DHT22;10261;49.010;12.034;2023-03-31T00:00:27;9.20;99.90
20204;DHT22;10261;49.010;12.034;2023-03-31T00:01:30;9.20;99.90
20204;DHT22;10261;49.010;12.034;2023-03-31T00:02:34;9.20;99.90
20204;DHT22;10261;49.010;12.034;2023-03-31T00:03:38;9.10;99.90
20204;DHT22;10261;49.010;12.034;2023-03-31T00:04:44;9.20;99.90
20204;DHT22;10261;49.010;12.034;2023-03-31T00:05:59;9.10;99.90
20204;DHT22;10261;49.010;12.034;2023-03-31T00:07:01;9.10;99.90
20204;DHT22;10261;49.010;12.034;2023-03-31T00:08:06;9.10;99.90
20204;DHT22;10261;49.010;12.034;2023-03-31T00:09:11;9.20;99.90
20204;DHT22;10261;49.010;12.034;2023-03-31T00:10:14;9.10;99.90
20204;DHT22;10261;49.010;12.034;2023-03-31T00:11:21;9.10;99.90
20204;DHT22;10261;49.010;12.034;2023-03-31T00:12:24;9.10;99.90
20204;DHT22;10261;49.010;12.034;2023-03-31T00:13:26;9.10;99.90
20204;DHT22;10261;49.010;12.034;2023-03-31T00:14:29;9.10;99.90
20204;DHT22;10261;49.010;12.034;2023-03-31T00:15:31;9.10;99.90
20204;DHT22;10261;49.010;12.034;2023-03-31T00:16:34;9.20;99.90
20204;DHT22;10261;49.010;12.034;2023-03-31T00:17:37;9.20;99.90
20204;DHT22;10261;49.010;12.034;2023-03-31T00:18:40;9.20;99.90
20204;DHT22;10261;49.010;12.034;2023-03-31T00:19:47;9.10;99.90
20204;DHT22;10261;49.010;12.034;2023-03-31T00:20:51;9.10;99.90
20204;DHT22;10261;49.010;12.034;2023-03-31T00:21:55;9.10;99.90
20204;DHT22;10261;49.010;12.034;2023-03-31T00:23:02;9.10;99.90
20204;DHT22;10261;49.010;12.034;2023-03-31T00:24:09;9.10;99.90
20204;DHT22;10261;49.010;12.034;2023-03-31T00:25:12;9.10;99.90
20204;DHT22;10261;49.010;12.034;2023-03-31T00:26:14;9.10;99.90
20204;DHT22;10261;49.010;12.034;2023-03-31T00:27:17;9.00;99.90
20204;DHT22;10261;49.010;12.034;2023-03-31T00:28:19;9.00;99.90
20204;DHT22;10261;49.010;12.034;2023-03-31T00:29:22;9.00;99.90
20204;DHT22;10261;49.010;12.034;2023-03-31T00:30:24;9.00;99.90
20204;DHT22;10261;49.010;12.034;2023-03-31T00:31:27;9.00;99.90
20204;DHT22;10261;49.010;12.034;2023-03-31T00:32:29;9.00;99.90
20204;DHT22;10261;49.010;12.034;2023-03-31T00:33:34;8.90;99.90
20204;DHT22;10261;49.010;12.034;2023-03-31T00:34:36;8.90;99.90
20204;DHT22;10261;49.010;12.034;2023-03-31T00:35:39;8.90;99.90
20204;DHT22;10261;49.010;12.034;2023-03-31T00:36:41;8.80;99.90
20204;DHT22;10261;49.010;12.034;2023-03-31T00:37:49;8.90;99.90
20204;DHT22;10261;49.010;12.034;2023-03-31T00:38:51;8.80;99.90
20204;DHT22;10261;49.010;12.034;2023-03-31T00:39:55;8.80;99.90
20204;DHT22;10261;49.010;12.034;2023-03-31T00:40:57;8.90;99.90
20204;DHT22;10261;49.010;12.034;2023-03-31T00:42:01;8.70;99.90
20204;DHT22;10261;49.010;12.034;2023-03-31T00:43:23;8.80;99.90
20204;DHT22;10261;49.010;12.034;2023-03-31T00:44:29;8.80;99.90
20204;DHT22;10261;49.010;12.034;2023-03-31T00:45:35;8.80;99.90
20204;DHT22;10261;49.010;12.034;2023-03-31T00:46:41;8.80;99.90
20204;DHT22;10261;49.010;12.034;2023-03-31T00:47:47;10.30;99.90
20204;DHT22;10261;49.010;12.034;2023-03-31T00:48:51;8.80;99.90
20204;DHT22;10261;49.010;12.034;2023-03-31T00:49:58;8.80;99.90
20204;DHT22;10261;49.010;12.034;2023-03-31T00:51:04;8.80;99.90
20204;DHT22;10261;49.010;12.034;2023-03-31T00:52:09;8.80;99.90
20204;DHT22;10261;49.010;12.034;2023-03-31T00:53:18;8.80;99.90
20204;DHT22;10261;49.010;12.034;2023-03-31T00:54:24;8.70;99.90
20204;DHT22;10261;49.010;12.034;2023-03-31T00:55:32;8.70;99.90
20204;DHT22;10261;49.010;12.034;2023-03-31T00:56:39;8.70;99.90
20204;DHT22;10261;49.010;12.034;2023-03-31T00:57:44;8.80;99.90
20204;DHT22;10261;49.010;12.034;2023-03-31T00:58:47;8.80;99.90
20204;DHT22;10261;49.010;12.034;2023-03-31T00:59:53;8.80;99.90
20204;DHT22;10261;49.010;12.034;2023-03-31T01:01:00;8.80;99.90
20204;DHT22;10261;49.010;12.034;2023-03-31T01:02:04;8.80;99.90
20204;DHT22;10261;49.010;12.034;2023-03-31T01:03:07;8.80;99.90
20204;DHT22;10261;49.010;12.034;2023-03-31T01:04:12;8.80;99.90
20204;DHT22;10261;49.010;12.034;2023-03-31T01:05:15;8.80;99.90
20204;DHT22;10261;49.010;12.034;2023-03-31T01:06:19;8.70;99.90
20204;DHT22;10261;49.010;12.034;2023-03-31T01:07:24;8.70;99.90
20204;DHT22;10261;49.010;12.034;2023-03-31T01:08:32;8.60;99.90
20204;DHT22;10261;49.010;12.034;2023-03-31T01:09:37;8.60;99.90
20204;DHT22;10261;49.010;12.034;2023-03-31T01:10:45;8.60;99.90
20204;DHT22;10261;49.010;12.034;2023-03-31T01:11:48;8.60;99.90
20204;DHT22;10261;49.010;12.034;2023-03-31T01:12:53;8.60;99.90
20204;DHT22;10261;49.010;12.034;2023-03-31T01:13:56;8.60;99.90
20204;DHT22;10261;49.010;12.034;2023-03-31T01:15:00;8.60;99.90
20204;DHT22;10261;49.010;12.034;2023-03-31T01:16:04;8.60;99.90
20204;DHT22;10261;49.010;12.034;2023-03-31T01:17:08;8.60;99.90
20204;DHT22;10261;49.010;12.034;2023-03-31T01:18:12;8.60;99.90
20204;DHT22;10261;49.010;12.034;2023-03-31T01:19:25;8.60;99.90
20204;DHT22;10261;49.010;12.034;2023-03-31T01:20:40;8.60;99.90
20204;DHT22;10261;49.010;12.034;2023-03-31T01:22:21;8.50;99.90
20204;DHT22;10261;49.010;12.034;2023-03-31T01:23:59;8.50;99.90
20204;DHT22;10261;49.010;12.034;2023-03-31T01:25:51;8.50;99.90
20204;DHT22;10261;49.010;12.034;2023-03-31T01:27:26;8.50;99.90
20204;DHT22;10261;49.010;12.034;2023-03-31T01:28:38;8.50;99.90
20204;DHT22;10261;49.010;12.034;2023-03-31T01:30:06;8.50;99.90
20204;DHT22;10261;49.010;12.034;2023-03-31T01:31:32;8.50;99.90
20204;DHT22;10261;49.010;12.034;2023-03-31T01:34:27;8.50;99.90
20204;DHT22;10261;49.010;12.034;2023-03-31T01:40:34;8.50;99.90
20204;DHT22;10261;49.010;12.034;2023-03-31T01:41:48;8.50;99.90
20204;DHT22;10261;49.010;12.034;2023-03-31T01:42:56;8.40;99.90
20204;DHT22;10261;49.010;12.034;2023-03-31T01:44:06;8.40;99.90
20204;DHT22;10261;49.010;12.034;2023-03-31T01:45:18;8.40;99.90
20204;DHT22;10261;49.010;12.034;2023-03-31T01:46:27;8.30;99.90
20204;DHT22;10261;49.010;12.034;2023-03-31T01:47:33;8.40;99.90
20204;DHT22;10261;49.010;12.034;2023-03-31T01:48:47;8.30;99.90
20204;DHT22;10261;49.010;12.034;2023-03-31T01:49:55;8.40;99.90
20204;DHT22;10261;49.010;12.034;2023-03-31T01:51:02;8.40;99.90
20204;DHT22;10261;49.010;12.034;2023-03-31T01:52:12;8.40;99.90
20204;DHT22;10261;49.010;12.034;2023-03-31T01:53:22;8.40;99.90
20204;DHT22;10261;49.010;12.034;2023-03-31T01:54:33;8.40;99.90
20204;DHT22;10261;49.010;12.034;2023-03-31T01:55:46;8.40;99.90
20204;DHT22;10261;49.010;12.034;2023-03-31T01:56:54;8.40;99.90
20204;DHT22;10261;49.010;12.034;2023-03-31T01:58:01;8.30;99.90
20204;DHT22;10261;49.010;12.034;2023-03-31T01:59:09;8.40;99.90
20204;DHT22;10261;49.010;12.034;2023-03-31T02:00:15;8.40;99.90
20204;DHT22;10261;49.010;12.034;2023-03-31T02:01:22;8.40;99.90
20204;DHT22;10261;49.010;12.034;2023-03-31T02:02:30;8.40;99.90
20204;DHT22;10261;49.010;12.034;2023-03-31T02:03:36;8.40;99.90
20204;DHT22;10261;49.010;12.034;2023-03-31T02:04:43;8.40;99.90
20204;DHT22;10261;49.010;12.034;2023-03-31T02:05:50;8.40;99.90
20204;DHT22;10261;49.010;12.034;2023-03-31T02:06:59;8.40;99.90
20204;DHT22;10261;49.010;12.034;2023-03-31T02:08:06;8.40;99.90
20204;DHT22;10261;49.010;12.034;2023-03-31T02:09:13;8.40;99.90
20204;DHT22;10261;49.010;12.034;2023-03-31T02:10:17;8.50;99.90
20204;DHT22;10261;49.010;12.034;2023-03-31T02:11:23;8.50;99.90
20204;DHT22;10261;49.010;12.034;2023-03-31T02:12:27;8.50;99.90
20204;DHT22;10261;49.010;12.034;2023-03-31T02:13:34;8.50;99.90
20204;DHT22;10261;49.010;12.034;2023-03-31T02:14:42;8.50;99.90
20204;DHT22;10261;49.010;12.034;2023-03-31T02:15:50;8.50;99.90
20204;DHT22;10261;49.010;12.034;2023-03-31T02:16:55;8.50;99.90
20204;DHT22;10261;49.010;12.034;2023-03-31T02:18:01;8.60;99.90
20204;DHT22;10261;49.010;12.034;2023-03-31T02:19:08;8.60;99.90
20204;DHT22;10261;49.010;12.034;2023-03-31T02:20:17;8.60;99.90
20204;DHT22;10261;49.010;12.034;2023-03-31T02:21:21;8.50;99.90
20204;DHT22;10261;49.010;12.034;2023-03-31T02:22:25;8.50;99.90
20204;DHT22;10261;49.010;12.034;2023-03-31T02:23:30;8.50;99.90
20204;DHT22;10261;49.010;12.034;2023-03-31T02:24:34;8.50;99.90
20204;DHT22;10261;49.010;12.034;2023-03-31T02:25:43;8.50;99.90
20204;DHT22;10261;49.010;12.034;2023-03-31T02:26:53;8.50;99.90
20204;DHT22;10261;49.010;12.034;2023-03-31T02:27:59;8.50;99.90
20204;DHT22;10261;49.010;12.034;2023-03-31T02:29:02;8.50;99.90
20204;DHT22;10261;49.010;12.034;2023-03-31T02:30:06;8.50;99.90
20204;DHT22;10261;49.010;12.034;2023-03-31T02:31:20;8.50;99.90
20204;DHT22;10261;49.010;12.034;2023-03-31T02:32:30;8.50;99.90
20204;DHT22;10261;49.010;12.034;2023-03-31T02:33:34;8.50;99.90
20204;DHT22;10261;49.010;12.034;2023-03-31T02:34:37;8.60;99.90
20204;DHT22;10261;49.010;12.034;2023-03-31T02:35:39;8.60;99.90
20204;DHT22;10261;49.010;12.034;2023-03-31T02:36:43;8.60;99.90
20204;DHT22;10261;49.010;12.034;2023-03-31T02:37:47;8.60;99.90
20204;DHT22;10261;49.010;12.034;2023-03-31T02:38:52;8.60;99.90
20204;DHT22;10261;49.010;12.034;2023-03-31T02:39:59;8.60;99.90
20204;DHT22;10261;49.010;12.034;2023-03-31T02:41:02;8.60;99.90
20204;DHT22;10261;49.010;12.034;2023-03-31T02:42:06;8.60;99.90
20204;DHT22;10261;49.010;12.034;2023-03-31T02:43:09;8.60;99.90
20204;DHT22;10261;49.010;12.034;2023-03-31T02:45:40;8.60;99.90
20204;DHT22;10261;49.010;12.034;2023-03-31T02:46:44;8.60;99.90
20204;DHT22;10261;49.010;12.034;2023-03-31T02:47:48;8.70;99.90
20204;DHT22;10261;49.010;12.034;2023-03-31T02:48:52;8.60;99.90
20204;DHT22;10261;49.010;12.034;2023-03-31T02:49:58;8.70;99.90
20204;DHT22;10261;49.010;12.034;2023-03-31T02:51:15;8.70;99.90
20204;DHT22;10261;49.010;12.034;2023-03-31T02:52:38;8.60;99.90
20204;DHT22;10261;49.010;12.034;2023-03-31T02:53:56;8.60;99.90
20204;DHT22;10261;49.010;12.034;2023-03-31T02:55:17;8.60;99.90
20204;DHT22;10261;49.010;12.034;2023-03-31T02:56:34;8.60;99.90
20204;DHT22;10261;49.010;12.034;2023-03-31T02:58:04;8.60;99.90
20204;DHT22;10261;49.010;12.034;2023-03-31T02:59:23;8.70;99.90
20204;DHT22;10261;49.010;12.034;2023-03-31T03:00:46;8.60;99.90
20204;DHT22;10261;49.010;12.034;2023-03-31T03:02:09;8.60;99.90
20204;DHT22;10261;49.010;12.034;2023-03-31T03:03:25;8.60;99.90
20204;DHT22;10261;49.010;12.034;2023-03-31T03:04:41;8.70;99.90
20204;DHT22;10261;49.010;12.034;2023-03-31T03:05:58;8.70;99.90
20204;DHT22;10261;49.010;12.034;2023-03-31T03:07:11;8.60;99.90
20204;DHT22;10261;49.010;12.034;2023-03-31T03:08:22;8.70;99.90
20204;DHT22;10261;49.010;12.034;2023-03-31T03:09:35;8.70;99.90
20204;DHT22;10261;49.010;12.034;2023-03-31T03:10:52;8.70;99.90
20204;DHT22;10261;49.010;12.034;2023-03-31T03:12:06;8.70;99.90
20204;DHT22;10261;49.010;12.034;2023-03-31T03:13:16;8.70;99.90
20204;DHT22;10261;49.010;12.034;2023-03-31T03:14:27;8.70;99.90
20204;DHT22;10261;49.010;12.034;2023-03-31T03:15:35;8.80;99.90
20204;DHT22;10261;49.010;12.034;2023-03-31T03:16:41;8.80;99.90
20204;DHT22;10261;49.010;12.034;2023-03-31T03:17:46;8.80;99.90
20204;DHT22;10261;49.010;12.034;2023-03-31T03:18:55;8.80;99.90
20204;DHT22;10261;49.010;12.034;2023-03-31T03:20:01;8.80;99.90
20204;DHT22;10261;49.010;12.034;2023-03-31T03:21:08;8.80;99.90
20204;DHT22;10261;49.010;12.034;2023-03-31T03:22:11;8.80;99.90
20204;DHT22;10261;49.010;12.034;2023-03-31T03:23:13;8.80;99.90
20204;DHT22;10261;49.010;12.034;2023-03-31T03:24:17;8.80;99.90
20204;DHT22;10261;49.010;12.034;2023-03-31T03:25:19;8.90;99.90
20204;DHT22;10261;49.010;12.034;2023-03-31T03:26:22;8.80;99.90
20204;DHT22;10261;49.010;12.034;2023-03-31T03:27:24;8.80;99.90
20204;DHT22;10261;49.010;12.034;2023-03-31T03:28:29;8.80;99.90
20204;DHT22;10261;49.010;12.034;2023-03-31T03:29:30;8.80;99.90
20204;DHT22;10261;49.010;12.034;2023-03-31T03:31:36;8.90;99.90
20204;DHT22;10261;49.010;12.034;2023-03-31T03:32:39;8.90;99.90
20204;DHT22;10261;49.010;12.034;2023-03-31T03:33:42;8.80;99.90
20204;DHT22;10261;49.010;12.034;2023-03-31T03:34:45;8.80;99.90
20204;DHT22;10261;49.010;12.034;2023-03-31T03:35:47;8.80;99.90
20204;DHT22;10261;49.010;12.034;2023-03-31T03:36:50;8.80;99.90
20204;DHT22;10261;49.010;12.034;2023-03-31T03:37:53;8.90;99.90
20204;DHT22;10261;49.010;12.034;2023-03-31T03:38:55;8.80;99.90
20204;DHT22;10261;49.010;12.034;2023-03-31T03:41:01;8.80;99.90
20204;DHT22;10261;49.010;12.034;2023-03-31T03:42:04;8.80;99.90
20204;DHT22;10261;49.010;12.034;2023-03-31T03:43:06;8.80;99.90
20204;DHT22;10261;49.010;12.034;2023-03-31T03:44:11;8.80;99.90
20204;DHT22;10261;49.010;12.034;2023-03-31T03:45:13;8.80;99.90
20204;DHT22;10261;49.010;12.034;2023-03-31T03:46:16;8.80;99.90
20204;DHT22;10261;49.010;12.034;2023-03-31T03:47:18;8.90;99.90
20204;DHT22;10261;49.010;12.034;2023-03-31T03:48:21;8.80;99.90
20204;DHT22;10261;49.010;12.034;2023-03-31T03:49:22;8.90;99.90
20204;DHT22;10261;49.010;12.034;2023-03-31T03:50:25;8.90;99.90
20204;DHT22;10261;49.010;12.034;2023-03-31T03:52:31;8.90;99.90
20204;DHT22;10261;49.010;12.034;2023-03-31T03:53:34;8.90;99.90
20204;DHT22;10261;49.010;12.034;2023-03-31T03:54:36;8.90;99.90
20204;DHT22;10261;49.010;12.034;2023-03-31T03:55:39;8.80;99.90
20204;DHT22;10261;49.010;12.034;2023-03-31T03:56:41;8.90;99.90
20204;DHT22;10261;49.010;12.034;2023-03-31T03:57:44;8.80;99.90
20204;DHT22;10261;49.010;12.034;2023-03-31T03:58:46;8.90;99.90
20204;DHT22;10261;49.010;12.034;2023-03-31T03:59:51;8.90;99.90
20204;DHT22;10261;49.010;12.034;2023-03-31T04:00:53;8.90;99.90
20204;DHT22;10261;49.010;12.034;2023-03-31T04:01:57;8.90;99.90
20204;DHT22;10261;49.010;12.034;2023-03-31T04:03:00;8.80;99.90
20204;DHT22;10261;49.010;12.034;2023-03-31T04:04:03;8.90;99.90
20204;DHT22;10261;49.010;12.034;2023-03-31T04:06:09;8.90;99.90
20204;DHT22;10261;49.010;12.034;2023-03-31T04:07:11;8.90;99.90
20204;DHT22;10261;49.010;12.034;2023-03-31T04:08:14;8.90;99.90
20204;DHT22;10261;49.010;12.034;2023-03-31T04:09:16;9.00;99.90
20204;DHT22;10261;49.010;12.034;2023-03-31T04:10:19;9.00;99.90
20204;DHT22;10261;49.010;12.034;2023-03-31T04:11:22;9.00;99.90
20204;DHT22;10261;49.010;12.034;2023-03-31T04:12:25;9.00;99.90
20204;DHT22;10261;49.010;12.034;2023-03-31T04:13:28;9.00;99.90
20204;DHT22;10261;49.010;12.034;2023-03-31T04:14:30;9.00;99.90
20204;DHT22;10261;49.010;12.034;2023-03-31T04:15:34;9.00;99.90
20204;DHT22;10261;49.010;12.034;2023-03-31T04:16:36;9.00;99.90
20204;DHT22;10261;49.010;12.034;2023-03-31T04:17:41;8.90;99.90
20204;DHT22;10261;49.010;12.034;2023-03-31T04:18:49;8.80;99.90
20204;DHT22;10261;49.010;12.034;2023-03-31T04:19:53;8.80;99.90
20204;DHT22;10261;49.010;12.034;2023-03-31T04:20:55;8.80;99.90
20204;DHT22;10261;49.010;12.034;2023-03-31T04:22:05;8.80;99.90
20204;DHT22;10261;49.010;12.034;2023-03-31T04:23:12;8.90;99.90
20204;DHT22;10261;49.010;12.034;2023-03-31T04:24:16;8.90;99.90
20204;DHT22;10261;49.010;12.034;2023-03-31T04:25:22;8.90;99.90
20204;DHT22;10261;49.010;12.034;2023-03-31T04:26:27;8.90;99.90
20204;DHT22;10261;49.010;12.034;2023-03-31T04:27:32;8.90;99.90
20204;DHT22;10261;49.010;12.034;2023-03-31T04:28:36;9.00;99.90
20204;DHT22;10261;49.010;12.034;2023-03-31T04:29:38;9.00;99.90
20204;DHT22;10261;49.010;12.034;2023-03-31T04:30:45;9.00;99.90
20204;DHT22;10261;49.010;12.034;2023-03-31T04:31:47;9.00;99.90
20204;DHT22;10261;49.010;12.034;2023-03-31T04:32:55;9.00;99.90
20204;DHT22;10261;49.010;12.034;2023-03-31T04:33:58;9.00;99.90
20204;DHT22;10261;49.010;12.034;2023-03-31T04:35:03;9.00;99.90
20204;DHT22;10261;49.010;12.034;2023-03-31T04:36:07;8.70;99.90
20204;DHT22;10261;49.010;12.034;2023-03-31T04:37:18;8.30;99.90
20204;DHT22;10261;49.010;12.034;2023-03-31T04:38:22;8.10;99.90
20204;DHT22;10261;49.010;12.034;2023-03-31T04:39:24;8.00;99.90
20204;DHT22;10261;49.010;12.034;2023-03-31T04:40:31;7.90;99.90
20204;DHT22;10261;49.010;12.034;2023-03-31T04:42:36;7.70;99.90
20204;DHT22;10261;49.010;12.034;2023-03-31T04:43:38;7.70;99.90
20204;DHT22;10261;49.010;12.034;2023-03-31T04:45:45;7.50;99.90
20204;DHT22;10261;49.010;12.034;2023-03-31T04:46:48;7.60;99.90
20204;DHT22;10261;49.010;12.034;2023-03-31T04:47:50;7.50;99.90
20204;DHT22;10261;49.010;12.034;2023-03-31T04:49:56;7.60;99.90
20204;DHT22;10261;49.010;12.034;2023-03-31T04:50:58;7.60;99.90
20204;DHT22;10261;49.010;12.034;2023-03-31T04:53:04;7.70;99.90
20204;DHT22;10261;49.010;12.034;2023-03-31T04:54:07;7.70;99.90
20204;DHT22;10261;49.010;12.034;2023-03-31T04:55:09;7.80;99.90
20204;DHT22;10261;49.010;12.034;2023-03-31T04:56:12;7.80;99.90
20204;DHT22;10261;49.010;12.034;2023-03-31T04:57:14;7.80;99.90
20204;DHT22;10261;49.010;12.034;2023-03-31T04:58:17;7.80;99.90
20204;DHT22;10261;49.010;12.034;2023-03-31T04:59:19;8.00;99.90
20204;DHT22;10261;49.010;12.034;2023-03-31T05:00:22;8.00;99.90
20204;DHT22;10261;49.010;12.034;2023-03-31T05:01:26;8.00;99.90
20204;DHT22;10261;49.010;12.034;2023-03-31T05:02:29;7.90;99.90
20204;DHT22;10261;49.010;12.034;2023-03-31T05:04:34;8.10;99.90
20204;DHT22;10261;49.010;12.034;2023-03-31T05:07:43;8.10;99.90
20204;DHT22;10261;49.010;12.034;2023-03-31T05:08:46;8.10;99.90
20204;DHT22;10261;49.010;12.034;2023-03-31T05:09:49;8.10;99.90
20204;DHT22;10261;49.010;12.034;2023-03-31T05:10:51;8.10;99.90
20204;DHT22;10261;49.010;12.034;2023-03-31T05:11:55;8.00;99.90
20204;DHT22;10261;49.010;12.034;2023-03-31T05:12:57;8.00;99.90
20204;DHT22;10261;49.010;12.034;2023-03-31T05:15:03;8.10;99.90
20204;DHT22;10261;49.010;12.034;2023-03-31T05:16:07;8.10;99.90
20204;DHT22;10261;49.010;12.034;2023-03-31T05:17:11;8.10;99.90
20204;DHT22;10261;49.010;12.034;2023-03-31T05:18:14;8.10;99.90
20204;DHT22;10261;49.010;12.034;2023-03-31T05:19:16;8.10;99.90
20204;DHT22;10261;49.010;12.034;2023-03-31T05:20:19;8.20;99.90
20204;DHT22;10261;49.010;12.034;2023-03-31T05:21:22;8.10;99.90
20204;DHT22;10261;49.010;12.034;2023-03-31T05:22:27;8.10;99.90
20204;DHT22;10261;49.010;12.034;2023-03-31T05:24:33;8.20;99.90
20204;DHT22;10261;49.010;12.034;2023-03-31T05:25:35;8.20;99.90
20204;DHT22;10261;49.010;12.034;2023-03-31T05:26:38;8.20;99.90
20204;DHT22;10261;49.010;12.034;2023-03-31T05:28:44;8.20;99.90
20204;DHT22;10261;49.010;12.034;2023-03-31T05:29:47;8.20;99.90
20204;DHT22;10261;49.010;12.034;2023-03-31T05:30:50;8.20;99.90
20204;DHT22;10261;49.010;12.034;2023-03-31T05:32:56;8.10;99.90
20204;DHT22;10261;49.010;12.034;2023-03-31T05:33:58;8.00;99.90
20204;DHT22;10261;49.010;12.034;2023-03-31T05:36:05;8.00;99.90
20204;DHT22;10261;49.010;12.034;2023-03-31T05:37:08;8.00;99.90
20204;DHT22;10261;49.010;12.034;2023-03-31T05:38:10;8.00;99.90
20204;DHT22;10261;49.010;12.034;2023-03-31T05:39:13;8.00;99.90
20204;DHT22;10261;49.010;12.034;2023-03-31T05:41:19;8.00;99.90
20204;DHT22;10261;49.010;12.034;2023-03-31T05:42:22;8.00;99.90
20204;DHT22;10261;49.010;12.034;2023-03-31T05:43:25;8.00;99.90
20204;DHT22;10261;49.010;12.034;2023-03-31T05:47:39;8.00;99.90
20204;DHT22;10261;49.010;12.034;2023-03-31T05:48:43;8.00;99.90
20204;DHT22;10261;49.010;12.034;2023-03-31T05:50:48;8.00;99.90
20204;DHT22;10261;49.010;12.034;2023-03-31T05:51:51;8.00;99.90
20204;DHT22;10261;49.010;12.034;2023-03-31T05:52:53;8.10;99.90
20204;DHT22;10261;49.010;12.034;2023-03-31T05:53:56;8.10;99.90
20204;DHT22;10261;49.010;12.034;2023-03-31T05:54:59;8.10;99.90
20204;DHT22;10261;49.010;12.034;2023-03-31T05:56:03;8.10;99.90
20204;DHT22;10261;49.010;12.034;2023-03-31T05:57:09;8.00;99.90
20204;DHT22;10261;49.010;12.034;2023-03-31T05:58:11;8.00;99.90
20204;DHT22;10261;49.010;12.034;2023-03-31T05:59:14;7.90;99.90
20204;DHT22;10261;49.010;12.034;2023-03-31T06:00:17;8.00;99.90
20204;DHT22;10261;49.010;12.034;2023-03-31T06:01:22;8.00;99.90
20204;DHT22;10261;49.010;12.034;2023-03-31T06:02:25;8.00;99.90
20204;DHT22;10261;49.010;12.034;2023-03-31T06:03:27;8.00;99.90
20204;DHT22;10261;49.010;12.034;2023-03-31T06:04:32;7.90;99.90
20204;DHT22;10261;49.010;12.034;2023-03-31T06:05:34;8.00;99.90
20204;DHT22;10261;49.010;12.034;2023-03-31T06:07:39;8.00;99.90
20204;DHT22;10261;49.010;12.034;2023-03-31T06:08:44;8.00;99.90
20204;DHT22;10261;49.010;12.034;2023-03-31T06:09:47;8.10;99.90
20204;DHT22;10261;49.010;12.034;2023-03-31T06:10:51;8.00;99.90
20204;DHT22;10261;49.010;12.034;2023-03-31T06:11:53;8.00;99.90
20204;DHT22;10261;49.010;12.034;2023-03-31T06:12:56;8.00;99.90
20204;DHT22;10261;49.010;12.034;2023-03-31T06:13:58;8.00;99.90
20204;DHT22;10261;49.010;12.034;2023-03-31T06:15:01;8.00;99.90
20204;DHT22;10261;49.010;12.034;2023-03-31T06:16:03;8.00;99.90
20204;DHT22;10261;49.010;12.034;2023-03-31T06:17:06;8.00;99.90
20204;DHT22;10261;49.010;12.034;2023-03-31T06:19:12;8.00;99.90
20204;DHT22;10261;49.010;12.034;2023-03-31T06:20:16;8.00;99.90
20204;DHT22;10261;49.010;12.034;2023-03-31T06:22:34;8.00;99.90
20204;DHT22;10261;49.010;12.034;2023-03-31T06:24:39;8.00;99.90
20204;DHT22;10261;49.010;12.034;2023-03-31T06:25:41;8.00;99.90
20204;DHT22;10261;49.010;12.034;2023-03-31T06:26:51;8.00;99.90
20204;DHT22;10261;49.010;12.034;2023-03-31T06:27:54;8.10;99.90
20204;DHT22;10261;49.010;12.034;2023-03-31T06:28:56;8.00;99.90
20204;DHT22;10261;49.010;12.034;2023-03-31T06:29:59;7.90;99.90
20204;DHT22;10261;49.010;12.034;2023-03-31T06:31:03;8.00;99.90
20204;DHT22;10261;49.010;12.034;2023-03-31T06:33:09;8.00;99.90
20204;DHT22;10261;49.010;12.034;2023-03-31T06:34:12;8.00;99.90
20204;DHT22;10261;49.010;12.034;2023-03-31T06:35:16;7.70;99.90
20204;DHT22;10261;49.010;12.034;2023-03-31T06:36:19;7.50;99.90
20204;DHT22;10261;49.010;12.034;2023-03-31T06:38:25;7.50;99.90
20204;DHT22;10261;49.010;12.034;2023-03-31T06:39:28;7.40;99.90
20204;DHT22;10261;49.010;12.034;2023-03-31T06:40:30;7.50;99.90
20204;DHT22;10261;49.010;12.034;2023-03-31T06:41:33;7.50;99.90
20204;DHT22;10261;49.010;12.034;2023-03-31T06:42:36;7.50;99.90
20204;DHT22;10261;49.010;12.034;2023-03-31T06:43:38;7.50;99.90
20204;DHT22;10261;49.010;12.034;2023-03-31T06:44:41;7.50;99.90
20204;DHT22;10261;49.010;12.034;2023-03-31T06:45:43;7.40;99.90
20204;DHT22;10261;49.010;12.034;2023-03-31T06:46:46;7.40;99.90
20204;DHT22;10261;49.010;12.034;2023-03-31T06:47:48;7.40;99.90
20204;DHT22;10261;49.010;12.034;2023-03-31T06:48:52;7.40;99.90
20204;DHT22;10261;49.010;12.034;2023-03-31T06:49:55;7.40;99.90
20204;DHT22;10261;49.010;12.034;2023-03-31T06:51:00;7.40;99.90
20204;DHT22;10261;49.010;12.034;2023-03-31T06:52:04;7.40;99.90
20204;DHT22;10261;49.010;12.034;2023-03-31T06:53:07;7.40;99.90
20204;DHT22;10261;49.010;12.034;2023-03-31T06:54:09;7.40;99.90
20204;DHT22;10261;49.010;12.034;2023-03-31T06:55:13;7.40;99.90
20204;DHT22;10261;49.010;12.034;2023-03-31T06:56:16;7.40;99.90
20204;DHT22;10261;49.010;12.034;2023-03-31T06:57:19;7.50;99.90
20204;DHT22;10261;49.010;12.034;2023-03-31T06:58:22;7.60;99.90
20204;DHT22;10261;49.010;12.034;2023-03-31T06:59:25;7.60;99.90
20204;DHT22;10261;49.010;12.034;2023-03-31T07:00:28;7.60;99.90
20204;DHT22;10261;49.010;12.034;2023-03-31T07:01:30;7.60;99.90
20204;DHT22;10261;49.010;12.034;2023-03-31T07:03:41;7.60;99.90
20204;DHT22;10261;49.010;12.034;2023-03-31T07:05:48;7.60;99.90
20204;DHT22;10261;49.010;12.034;2023-03-31T07:06:53;7.70;99.90
20204;DHT22;10261;49.010;12.034;2023-03-31T07:07:56;7.70;99.90
20204;DHT22;10261;49.010;12.034;2023-03-31T07:08:59;7.70;99.90
20204;DHT22;10261;49.010;12.034;2023-03-31T07:10:01;7.60;99.90
20204;DHT22;10261;49.010;12.034;2023-03-31T07:11:04;7.70;99.90
20204;DHT22;10261;49.010;12.034;2023-03-31T07:12:07;7.70;99.90
20204;DHT22;10261;49.010;12.034;2023-03-31T07:13:11;7.60;99.90
20204;DHT22;10261;49.010;12.034;2023-03-31T07:14:12;7.60;99.90
20204;DHT22;10261;49.010;12.034;2023-03-31T07:15:16;7.60;99.90
20204;DHT22;10261;49.010;12.034;2023-03-31T07:16:18;7.60;99.90
20204;DHT22;10261;49.010;12.034;2023-03-31T07:17:21;7.60;99.90
20204;DHT22;10261;49.010;12.034;2023-03-31T07:18:26;7.60;99.90
20204;DHT22;10261;49.010;12.034;2023-03-31T07:19:36;7.90;99.90
20204;DHT22;10261;49.010;12.034;2023-03-31T07:20:42;7.90;99.90
20204;DHT22;10261;49.010;12.034;2023-03-31T07:21:44;7.90;99.90
20204;DHT22;10261;49.010;12.034;2023-03-31T07:22:49;8.00;99.90
20204;DHT22;10261;49.010;12.034;2023-03-31T07:23:51;8.00;99.90
20204;DHT22;10261;49.010;12.034;2023-03-31T07:24:54;8.10;99.90
20204;DHT22;10261;49.010;12.034;2023-03-31T07:25:56;8.00;99.90
20204;DHT22;10261;49.010;12.034;2023-03-31T07:27:03;8.00;99.90
20204;DHT22;10261;49.010;12.034;2023-03-31T07:28:06;8.10;99.90
20204;DHT22;10261;49.010;12.034;2023-03-31T07:29:08;8.00;99.90
20204;DHT22;10261;49.010;12.034;2023-03-31T07:30:13;8.10;99.90
20204;DHT22;10261;49.010;12.034;2023-03-31T07:31:16;8.10;99.90
20204;DHT22;10261;49.010;12.034;2023-03-31T07:32:19;8.20;99.90